Time;durP1;ratioP1;P1;durP2;ratioP2;P2;SDS_P1;SDS_P2;PMS_P1;PMS_P2;Temp;Humidity;BMP_temperature;BMP_pressure;BME280_temperature;BME280_humidity;BME280_pressure;Samples;Min_cycle;Max_cycle;Signal;HPM_P1;HPM_P2
2021/03/09 00:01:34;;;;;;;25.75;16.25;;;;;;;;;;5073006;28;20421;-66
2021/03/09 00:04:00;;;;;;;26.55;16.10;;;;;;;;;;5075447;28;20419;-66
2021/03/09 00:06:26;;;;;;;27.25;16.98;;;;;;;;;;5076989;28;20032;-66
2021/03/09 00:08:52;;;;;;;26.88;16.05;;;;;;;;;;5077106;28;20024;-66
2021/03/09 00:11:18;;;;;;;30.75;17.55;;;;;;;;;;5077275;28;20353;-66
2021/03/09 00:13:45;;;;;;;28.27;15.60;;;;;;;;;;5077143;28;20447;-66
2021/03/09 00:16:11;;;;;;;24.45;15.57;;;;;;;;;;5075635;28;20444;-66
2021/03/09 00:18:37;;;;;;;24.80;15.77;;;;;;;;;;5077161;28;20389;-66
2021/03/09 00:21:03;;;;;;;23.35;14.98;;;;;;;;;;5076678;28;20028;-66
2021/03/09 00:23:29;;;;;;;23.77;16.13;;;;;;;;;;5076926;28;20467;-66
2021/03/09 00:25:56;;;;;;;27.02;16.25;;;;;;;;;;5076532;28;20388;-66
2021/03/09 00:28:22;;;;;;;24.45;15.63;;;;;;;;;;5076485;28;20029;-66
2021/03/09 00:30:49;;;;;;;27.15;15.93;;;;;;;;;;5076670;28;20047;-66
2021/03/09 00:33:15;;;;;;;23.88;15.00;;;;;;;;;;5076546;28;20468;-66
2021/03/09 00:35:41;;;;;;;20.98;13.57;;;;;;;;;;5076676;28;20103;-66
2021/03/09 00:38:07;;;;;;;23.70;14.93;;;;;;;;;;5076638;28;20029;-65
2021/03/09 00:40:33;;;;;;;24.88;15.85;;;;;;;;;;5076173;28;20473;-66
2021/03/09 00:42:59;;;;;;;26.75;15.63;;;;;;;;;;5076217;28;20033;-66
2021/03/09 00:45:25;;;;;;;24.48;15.15;;;;;;;;;;5076622;28;20024;-65
2021/03/09 00:47:52;;;;;;;23.35;15.20;;;;;;;;;;5076276;28;20555;-66
2021/03/09 00:50:18;;;;;;;26.80;15.00;;;;;;;;;;5076066;28;20012;-66
2021/03/09 00:52:44;;;;;;;26.08;14.45;;;;;;;;;;5076090;28;20024;-66
2021/03/09 00:55:10;;;;;;;28.10;15.82;;;;;;;;;;5076036;28;20023;-66
2021/03/09 00:57:37;;;;;;;23.42;15.77;;;;;;;;;;5076050;28;20028;-65
2021/03/09 01:00:04;;;;;;;23.10;14.68;;;;;;;;;;5075960;28;20100;-66
2021/03/09 01:02:30;;;;;;;23.48;14.98;;;;;;;;;;5075821;28;20033;-66
2021/03/09 01:04:56;;;;;;;27.98;15.52;;;;;;;;;;5076244;28;20021;-66
2021/03/09 01:07:22;;;;;;;27.05;15.32;;;;;;;;;;5075921;28;20392;-66
2021/03/09 01:09:48;;;;;;;25.92;15.07;;;;;;;;;;5075892;28;20093;-66
2021/03/09 01:12:14;;;;;;;27.77;16.35;;;;;;;;;;5075703;28;20081;-66
2021/03/09 01:14:41;;;;;;;23.73;15.20;;;;;;;;;;5075044;28;20016;-66
2021/03/09 01:17:07;;;;;;;22.88;15.20;;;;;;;;;;5075969;28;20036;-66
2021/03/09 01:19:33;;;;;;;28.45;15.25;;;;;;;;;;5075756;28;20016;-66
2021/03/09 01:21:59;;;;;;;24.10;15.25;;;;;;;;;;5075569;28;20041;-66
2021/03/09 01:24:25;;;;;;;22.55;14.40;;;;;;;;;;5075633;28;20033;-66
2021/03/09 01:26:52;;;;;;;23.80;14.80;;;;;;;;;;5075603;28;20405;-66
2021/03/09 01:29:18;;;;;;;23.52;15.10;;;;;;;;;;5075420;28;20056;-66
2021/03/09 01:31:44;;;;;;;24.83;14.88;;;;;;;;;;5075615;28;20020;-66
2021/03/09 01:34:11;;;;;;;23.67;14.57;;;;;;;;;;5075626;28;20389;-66
2021/03/09 01:36:37;;;;;;;23.90;14.32;;;;;;;;;;5075399;28;20028;-66
2021/03/09 01:39:04;;;;;;;23.25;14.13;;;;;;;;;;5075218;28;20073;-66
2021/03/09 01:41:30;;;;;;;25.52;13.93;;;;;;;;;;5075064;28;20064;-66
2021/03/09 01:43:56;;;;;;;25.00;13.43;;;;;;;;;;5075202;28;20028;-66
2021/03/09 01:46:22;;;;;;;23.90;13.85;;;;;;;;;;5075104;28;20153;-66
2021/03/09 01:48:49;;;;;;;19.40;12.70;;;;;;;;;;5075115;28;20024;-66
2021/03/09 01:51:19;;;;;;;19.88;12.63;;;;;;;;;;5075269;28;20039;-66
2021/03/09 01:53:45;;;;;;;22.35;13.02;;;;;;;;;;5074937;28;20550;-66
2021/03/09 01:56:13;;;;;;;18.63;12.20;;;;;;;;;;5075261;28;20040;-66
2021/03/09 01:58:40;;;;;;;22.48;13.00;;;;;;;;;;5075125;28;20024;-66
2021/03/09 02:01:07;;;;;;;20.67;12.85;;;;;;;;;;5074785;28;20036;-66
2021/03/09 02:03:33;;;;;;;24.27;12.95;;;;;;;;;;5074905;28;20031;-66
2021/03/09 02:05:59;;;;;;;24.00;13.27;;;;;;;;;;5074867;28;20099;-66
2021/03/09 02:08:26;;;;;;;22.38;12.95;;;;;;;;;;5074713;28;20027;-65
2021/03/09 02:10:53;;;;;;;18.88;12.02;;;;;;;;;;5074939;28;20028;-66
2021/03/09 02:13:19;;;;;;;19.48;12.57;;;;;;;;;;5074538;28;20074;-66
2021/03/09 02:16:03;;;;;;;21.00;12.68;;;;;;;;;;5073339;28;20031;-66
2021/03/09 02:18:39;;;;;;;18.88;11.77;;;;;;;;;;5074388;28;20036;-66
2021/03/09 02:21:17;;;;;;;19.85;12.10;;;;;;;;;;5074416;28;20044;-65
2021/03/09 02:23:49;;;;;;;18.92;11.35;;;;;;;;;;5074307;28;20024;-66
2021/03/09 02:26:30;;;;;;;18.67;11.75;;;;;;;;;;5074149;28;20064;-66
2021/03/09 02:28:56;;;;;;;21.15;11.88;;;;;;;;;;5074197;28;20024;-66
2021/03/09 02:31:27;;;;;;;21.40;11.10;;;;;;;;;;5074354;28;20075;-66
2021/03/09 02:33:59;;;;;;;18.35;10.82;;;;;;;;;;5074114;28;20021;-66
2021/03/09 02:36:26;;;;;;;16.10;11.00;;;;;;;;;;5074621;28;20025;-66
2021/03/09 02:39:00;;;;;;;20.58;10.48;;;;;;;;;;5074042;28;20086;-66
2021/03/09 02:41:27;;;;;;;18.20;11.20;;;;;;;;;;5073970;28;20435;-66
2021/03/09 02:43:54;;;;;;;19.10;10.77;;;;;;;;;;5073940;28;20096;-66
2021/03/09 02:46:21;;;;;;;20.52;10.85;;;;;;;;;;5073972;28;20423;-66
2021/03/09 02:48:47;;;;;;;17.90;10.63;;;;;;;;;;5073870;28;20469;-65
2021/03/09 02:51:14;;;;;;;14.85;9.93;;;;;;;;;;5072663;28;20056;-66
2021/03/09 02:53:53;;;;;;;17.15;10.50;;;;;;;;;;5073933;28;20028;-66
2021/03/09 02:56:21;;;;;;;15.65;10.48;;;;;;;;;;5074087;28;20412;-66
2021/03/09 02:58:52;;;;;;;15.73;10.40;;;;;;;;;;5073696;28;20031;-66
2021/03/09 03:01:19;;;;;;;16.87;9.90;;;;;;;;;;5073665;28;20110;-66
2021/03/09 03:03:45;;;;;;;16.58;10.23;;;;;;;;;;5073914;28;20485;-66
2021/03/09 03:06:12;;;;;;;15.90;9.95;;;;;;;;;;5073535;28;20055;-66
2021/03/09 03:08:39;;;;;;;18.13;10.73;;;;;;;;;;5073486;28;20025;-66
2021/03/09 03:11:06;;;;;;;16.30;10.25;;;;;;;;;;5073637;28;20522;-66
2021/03/09 03:13:33;;;;;;;20.30;10.10;;;;;;;;;;5073502;28;20377;-66
2021/03/09 03:15:59;;;;;;;14.80;9.75;;;;;;;;;;5073515;28;20032;-66
2021/03/09 03:18:26;;;;;;;17.77;10.68;;;;;;;;;;5073750;28;20028;-66
2021/03/09 03:20:52;;;;;;;17.55;10.50;;;;;;;;;;5073339;28;20051;-66
2021/03/09 03:23:22;;;;;;;19.88;11.15;;;;;;;;;;5073509;28;20029;-66
2021/03/09 03:25:52;;;;;;;15.13;10.32;;;;;;;;;;5073350;28;20024;-66
2021/03/09 03:28:19;;;;;;;13.70;8.50;;;;;;;;;;5072769;28;20484;-66
2021/03/09 03:30:46;;;;;;;14.45;8.35;;;;;;;;;;5073278;28;20056;-66
2021/03/09 03:33:12;;;;;;;13.90;8.85;;;;;;;;;;5073312;28;20532;-66
2021/03/09 03:35:38;;;;;;;21.23;9.07;;;;;;;;;;5073316;28;20024;-66
2021/03/09 03:38:05;;;;;;;14.02;8.27;;;;;;;;;;5073034;28;20017;-66
2021/03/09 03:40:31;;;;;;;18.17;8.15;;;;;;;;;;5073041;28;20031;-66
2021/03/09 03:42:57;;;;;;;13.60;8.13;;;;;;;;;;5073578;28;20179;-66
2021/03/09 03:45:24;;;;;;;16.58;9.38;;;;;;;;;;5073051;28;20025;-66
2021/03/09 03:47:55;;;;;;;23.85;9.65;;;;;;;;;;5073151;28;20024;-66
2021/03/09 03:50:21;;;;;;;20.45;9.63;;;;;;;;;;5073234;28;20111;-66
2021/03/09 03:52:47;;;;;;;15.30;9.95;;;;;;;;;;5073191;28;20027;-66
2021/03/09 03:55:19;;;;;;;15.45;7.63;;;;;;;;;;5072898;28;20033;-66
2021/03/09 03:57:50;;;;;;;12.18;7.90;;;;;;;;;;5073143;28;20025;-66
2021/03/09 04:00:17;;;;;;;13.07;7.45;;;;;;;;;;5072822;28;20115;-66
2021/03/09 04:02:45;;;;;;;15.98;8.23;;;;;;;;;;5073366;28;20025;-66
2021/03/09 04:05:11;;;;;;;14.90;8.35;;;;;;;;;;5072961;28;20073;-66
2021/03/09 04:07:39;;;;;;;14.52;8.50;;;;;;;;;;5073081;28;20028;-66
2021/03/09 04:10:06;;;;;;;16.83;8.35;;;;;;;;;;5072832;28;20024;-66
2021/03/09 04:12:34;;;;;;;12.07;8.45;;;;;;;;;;5073344;28;20465;-65
2021/03/09 04:15:00;;;;;;;20.13;8.63;;;;;;;;;;5073097;28;20021;-66
2021/03/09 04:17:27;;;;;;;21.30;9.02;;;;;;;;;;5072951;28;20469;-66
2021/03/09 04:19:56;;;;;;;17.58;8.48;;;;;;;;;;5072723;28;20020;-66
2021/03/09 04:22:24;;;;;;;14.80;8.48;;;;;;;;;;5072881;28;20028;-66
2021/03/09 04:24:51;;;;;;;12.75;8.35;;;;;;;;;;5072737;28;20043;-66
2021/03/09 04:27:23;;;;;;;18.30;8.65;;;;;;;;;;5072732;28;20040;-66
2021/03/09 04:29:54;;;;;;;16.73;8.55;;;;;;;;;;5073058;28;20028;-66
2021/03/09 04:32:21;;;;;;;14.82;9.75;;;;;;;;;;5072846;28;20024;-66
2021/03/09 04:34:47;;;;;;;22.58;10.98;;;;;;;;;;5072782;28;20028;-66
2021/03/09 04:37:14;;;;;;;16.35;9.93;;;;;;;;;;5072634;28;20025;-66
2021/03/09 04:39:41;;;;;;;19.17;9.38;;;;;;;;;;5072698;28;20032;-66
2021/03/09 04:42:08;;;;;;;13.85;8.75;;;;;;;;;;5072405;28;20060;-66
2021/03/09 04:44:34;;;;;;;15.80;8.93;;;;;;;;;;5072879;28;20032;-66
2021/03/09 04:47:00;;;;;;;16.85;8.80;;;;;;;;;;5071356;28;20055;-66
2021/03/09 04:49:27;;;;;;;13.85;8.68;;;;;;;;;;5072529;28;20032;-66
2021/03/09 04:51:53;;;;;;;20.40;9.40;;;;;;;;;;5076181;28;20446;-66
2021/03/09 04:54:20;;;;;;;13.48;8.65;;;;;;;;;;5076171;28;20081;-66
2021/03/09 04:56:46;;;;;;;15.73;7.63;;;;;;;;;;5074768;28;20021;-66
2021/03/09 04:59:12;;;;;;;14.38;8.25;;;;;;;;;;5076092;28;20032;-66
2021/03/09 05:01:38;;;;;;;17.20;8.32;;;;;;;;;;5074566;28;20119;-63
2021/03/09 05:04:04;;;;;;;16.20;9.23;;;;;;;;;;5076163;28;20020;-64
2021/03/09 05:06:31;;;;;;;14.00;8.30;;;;;;;;;;5075858;28;20071;-65
2021/03/09 05:08:57;;;;;;;26.38;9.30;;;;;;;;;;5075924;28;20048;-65
2021/03/09 05:11:23;;;;;;;21.08;8.65;;;;;;;;;;5075798;28;20477;-65
2021/03/09 05:13:49;;;;;;;14.40;8.43;;;;;;;;;;5075732;28;20065;-65
2021/03/09 05:16:15;;;;;;;15.60;8.10;;;;;;;;;;5075846;28;20103;-65
2021/03/09 05:18:41;;;;;;;30.42;9.10;;;;;;;;;;5076019;28;20104;-65
2021/03/09 05:21:08;;;;;;;15.00;8.23;;;;;;;;;;5075826;28;20068;-65
2021/03/09 05:23:34;;;;;;;13.75;8.13;;;;;;;;;;5075723;28;20091;-65
2021/03/09 05:26:00;;;;;;;19.58;9.00;;;;;;;;;;5075510;28;20028;-65
2021/03/09 05:28:26;;;;;;;17.92;8.82;;;;;;;;;;5075884;28;20031;-65
2021/03/09 05:30:52;;;;;;;19.48;10.02;;;;;;;;;;5075525;28;20052;-65
2021/03/09 05:33:18;;;;;;;23.38;9.68;;;;;;;;;;5075490;28;20530;-65
2021/03/09 05:35:44;;;;;;;21.15;9.15;;;;;;;;;;5075417;28;20029;-65
2021/03/09 05:38:10;;;;;;;25.85;8.60;;;;;;;;;;5075553;28;20029;-66
2021/03/09 05:40:37;;;;;;;17.52;9.07;;;;;;;;;;5075072;28;20082;-66
2021/03/09 05:43:03;;;;;;;17.35;9.10;;;;;;;;;;5075343;28;20478;-66
2021/03/09 05:45:30;;;;;;;22.38;9.55;;;;;;;;;;5075427;28;20028;-65
2021/03/09 05:47:58;;;;;;;23.83;9.70;;;;;;;;;;5075428;28;20165;-66
2021/03/09 05:50:24;;;;;;;18.70;9.60;;;;;;;;;;5075060;28;20025;-66
2021/03/09 05:52:50;;;;;;;19.58;9.02;;;;;;;;;;5075143;28;20051;-65
2021/03/09 05:55:16;;;;;;;16.92;9.45;;;;;;;;;;5075107;28;20536;-66
2021/03/09 05:57:42;;;;;;;18.02;9.60;;;;;;;;;;5074920;28;20029;-65
2021/03/09 06:00:10;;;;;;;26.02;10.43;;;;;;;;;;5075153;28;20379;-65
2021/03/09 06:02:36;;;;;;;18.17;10.30;;;;;;;;;;5074597;28;20099;-65
2021/03/09 06:05:07;;;;;;;20.90;9.95;;;;;;;;;;5074787;28;20377;-64
2021/03/09 06:07:35;;;;;;;35.83;11.65;;;;;;;;;;5074668;28;20036;-65
2021/03/09 06:10:01;;;;;;;24.25;10.80;;;;;;;;;;5074786;28;20031;-66
2021/03/09 06:12:27;;;;;;;21.77;10.68;;;;;;;;;;5074870;28;20033;-65
2021/03/09 06:15:00;;;;;;;23.13;10.43;;;;;;;;;;5075321;28;20116;-65
2021/03/09 06:17:26;;;;;;;17.17;10.23;;;;;;;;;;5074568;28;20023;-65
2021/03/09 06:19:53;;;;;;;18.60;10.65;;;;;;;;;;5074755;28;20028;-65
2021/03/09 06:22:19;;;;;;;19.33;8.95;;;;;;;;;;5074341;28;20039;-66
2021/03/09 06:24:47;;;;;;;19.13;8.80;;;;;;;;;;5074340;28;20084;-65
2021/03/09 06:27:26;;;;;;;19.80;9.10;;;;;;;;;;5074241;28;20046;-65
2021/03/09 06:29:52;;;;;;;18.95;9.48;;;;;;;;;;5074367;28;20056;-65
2021/03/09 06:32:19;;;;;;;17.67;10.93;;;;;;;;;;5074413;28;20441;-66
2021/03/09 06:34:45;;;;;;;22.40;10.70;;;;;;;;;;5074337;28;20381;-64
2021/03/09 06:37:24;;;;;;;25.90;12.68;;;;;;;;;;5074038;28;20028;-65
2021/03/09 06:39:57;;;;;;;22.55;10.63;;;;;;;;;;5074143;28;20103;-66
2021/03/09 06:42:33;;;;;;;19.40;11.35;;;;;;;;;;5073800;28;20044;-66
2021/03/09 06:45:02;;;;;;;19.77;10.15;;;;;;;;;;5073887;28;20032;-66
2021/03/09 06:47:32;;;;;;;27.50;10.75;;;;;;;;;;5074006;28;20020;-66
2021/03/09 06:49:58;;;;;;;21.35;10.32;;;;;;;;;;5073706;28;20097;-66
2021/03/09 06:52:25;;;;;;;23.95;13.30;;;;;;;;;;5073711;28;20045;-65
2021/03/09 06:54:53;;;;;;;24.90;12.95;;;;;;;;;;5073805;28;20076;-66
2021/03/09 06:57:19;;;;;;;19.83;12.07;;;;;;;;;;5073479;28;20429;-66
2021/03/09 06:59:48;;;;;;;16.48;10.07;;;;;;;;;;5073636;28;20028;-67
2021/03/09 07:02:15;;;;;;;17.13;10.77;;;;;;;;;;5073378;28;20064;-67
2021/03/09 07:04:43;;;;;;;21.73;10.63;;;;;;;;;;5073614;28;20025;-66
2021/03/09 07:07:10;;;;;;;21.88;10.90;;;;;;;;;;5073577;28;20082;-66
2021/03/09 07:09:36;;;;;;;20.92;10.30;;;;;;;;;;5073577;28;20024;-65
2021/03/09 07:12:03;;;;;;;21.90;10.55;;;;;;;;;;5073596;28;20024;-66
2021/03/09 07:14:33;;;;;;;21.23;9.90;;;;;;;;;;5073129;28;20384;-64
2021/03/09 07:17:03;;;;;;;21.73;10.65;;;;;;;;;;5073645;28;20059;-65
2021/03/09 07:19:40;;;;;;;18.00;9.77;;;;;;;;;;5078467;28;20029;-65
2021/03/09 07:22:07;;;;;;;21.10;10.95;;;;;;;;;;5053228;28;20044;-68
2021/03/09 07:24:33;;;;;;;20.38;10.00;;;;;;;;;;5053348;28;20424;-66
2021/03/09 07:27:03;;;;;;;22.73;9.95;;;;;;;;;;5053300;28;20390;-66
2021/03/09 07:29:29;;;;;;;15.10;9.07;;;;;;;;;;5053211;28;20025;-66
2021/03/09 07:31:56;;;;;;;20.10;9.98;;;;;;;;;;5053153;28;20036;-66
2021/03/09 07:34:24;;;;;;;24.75;9.68;;;;;;;;;;5053310;28;20024;-66
2021/03/09 07:36:51;;;;;;;18.65;8.75;;;;;;;;;;5053229;28;20536;-66
2021/03/09 07:39:18;;;;;;;41.10;11.68;;;;;;;;;;5053160;28;20492;-66
2021/03/09 07:41:45;;;;;;;17.50;9.88;;;;;;;;;;5052923;28;20123;-66
2021/03/09 07:44:11;;;;;;;18.13;9.23;;;;;;;;;;5053197;28;20477;-66
2021/03/09 07:46:38;;;;;;;16.30;8.85;;;;;;;;;;5087287;28;20499;-66
2021/03/09 07:49:05;;;;;;;14.82;8.85;;;;;;;;;;5093101;28;20070;-66
2021/03/09 07:51:31;;;;;;;16.25;8.07;;;;;;;;;;5078256;28;20466;-67
2021/03/09 07:54:16;;;;;;;28.70;10.38;;;;;;;;;;5061244;28;20393;-66
2021/03/09 07:57:01;;;;;;;14.57;8.65;;;;;;;;;;5052952;28;20074;-66
2021/03/09 07:59:27;;;;;;;15.55;8.82;;;;;;;;;;5052918;28;20029;-66
2021/03/09 08:01:53;;;;;;;15.93;7.93;;;;;;;;;;5053127;28;20091;-66
2021/03/09 08:04:19;;;;;;;12.90;8.70;;;;;;;;;;5052747;28;20088;-66
2021/03/09 08:06:46;;;;;;;11.80;7.82;;;;;;;;;;5052844;28;20029;-67
2021/03/09 08:09:31;;;;;;;14.20;7.40;;;;;;;;;;5052887;28;20103;-69
2021/03/09 08:11:57;;;;;;;19.92;8.52;;;;;;;;;;5053077;28;20087;-67
2021/03/09 08:14:23;;;;;;;198.48;19.20;;;;;;;;;;5053027;28;20025;-67
2021/03/09 08:16:50;;;;;;;14.35;7.55;;;;;;;;;;5052792;28;20029;-67
2021/03/09 08:19:25;;;;;;;11.77;6.68;;;;;;;;;;5052580;28;20029;-67
2021/03/09 08:21:51;;;;;;;15.45;7.32;;;;;;;;;;5052908;28;20386;-67
2021/03/09 08:24:18;;;;;;;15.45;7.13;;;;;;;;;;5052569;28;20493;-68
2021/03/09 08:26:46;;;;;;;16.25;7.30;;;;;;;;;;5056440;28;20029;-67
2021/03/09 08:29:30;;;;;;;17.25;9.02;;;;;;;;;;5056480;28;20434;-67
2021/03/09 08:32:15;;;;;;;11.95;7.30;;;;;;;;;;5056444;28;20035;-67
2021/03/09 08:34:41;;;;;;;12.15;6.93;;;;;;;;;;5056364;28;20032;-68
2021/03/09 08:37:27;;;;;;;14.05;7.47;;;;;;;;;;5056524;28;20029;-68
2021/03/09 08:40:05;;;;;;;13.35;7.82;;;;;;;;;;5056216;28;20029;-68
2021/03/09 08:42:51;;;;;;;14.05;7.53;;;;;;;;;;5056141;28;20055;-65
2021/03/09 08:45:46;;;;;;;15.25;7.35;;;;;;;;;;5056031;28;20426;-66
2021/03/09 08:48:12;;;;;;;13.05;7.25;;;;;;;;;;5046965;28;20055;-66
2021/03/09 08:50:39;;;;;;;11.88;6.35;;;;;;;;;;5056104;28;20055;-67
2021/03/09 08:53:05;;;;;;;10.95;6.97;;;;;;;;;;5056165;28;20032;-64
2021/03/09 08:55:31;;;;;;;11.52;7.10;;;;;;;;;;5056051;28;20021;-64
2021/03/09 08:57:57;;;;;;;13.98;6.47;;;;;;;;;;5055993;28;20104;-66
2021/03/09 09:00:24;;;;;;;40.88;12.60;;;;;;;;;;5074460;28;20423;-65
2021/03/09 09:02:50;;;;;;;39.60;18.48;;;;;;;;;;5095350;28;20024;-65
2021/03/09 09:05:16;;;;;;;23.40;12.85;;;;;;;;;;5085607;28;20032;-65
2021/03/09 09:07:43;;;;;;;19.23;9.25;;;;;;;;;;5094336;28;20028;-66
2021/03/09 09:10:12;;;;;;;40.33;17.35;;;;;;;;;;5094194;28;20028;-65
2021/03/09 09:12:43;;;;;;;14.70;7.63;;;;;;;;;;5095419;28;20016;-65
2021/03/09 09:15:11;;;;;;;12.50;7.85;;;;;;;;;;5095822;28;20461;-65
2021/03/09 09:17:38;;;;;;;19.52;11.13;;;;;;;;;;5095814;28;20329;-66
2021/03/09 09:20:07;;;;;;;23.38;13.38;;;;;;;;;;5096017;28;20086;-65
2021/03/09 09:22:34;;;;;;;17.45;7.00;;;;;;;;;;5095953;28;20035;-65
2021/03/09 09:25:04;;;;;;;10.98;6.75;;;;;;;;;;5096061;28;20381;-65
2021/03/09 09:27:39;;;;;;;10.15;7.03;;;;;;;;;;5095728;28;20024;-65
2021/03/09 09:30:06;;;;;;;13.45;7.70;;;;;;;;;;5095714;28;20023;-65
2021/03/09 09:32:45;;;;;;;10.65;6.05;;;;;;;;;;5095734;28;20461;-65
2021/03/09 09:35:11;;;;;;;14.40;7.25;;;;;;;;;;5095545;28;20035;-66
2021/03/09 09:37:44;;;;;;;10.23;6.22;;;;;;;;;;5095233;28;20026;-66
2021/03/09 09:40:11;;;;;;;11.48;6.22;;;;;;;;;;5095664;28;20435;-65
2021/03/09 09:42:37;;;;;;;12.30;6.82;;;;;;;;;;5095884;28;20044;-65
2021/03/09 09:45:03;;;;;;;11.95;6.10;;;;;;;;;;5095394;28;20024;-66
2021/03/09 09:47:30;;;;;;;12.82;7.13;;;;;;;;;;5095314;28;20111;-65
2021/03/09 09:49:56;;;;;;;10.43;6.10;;;;;;;;;;5095524;28;20385;-66
2021/03/09 09:52:22;;;;;;;9.02;5.95;;;;;;;;;;5095254;28;20081;-66
2021/03/09 09:54:55;;;;;;;10.15;6.57;;;;;;;;;;5095442;28;20032;-66
2021/03/09 09:57:22;;;;;;;13.20;6.53;;;;;;;;;;5095127;28;20028;-66
2021/03/09 09:59:48;;;;;;;12.73;6.90;;;;;;;;;;5095392;28;20028;-66
2021/03/09 10:02:24;;;;;;;14.55;6.80;;;;;;;;;;5095086;28;20114;-66
2021/03/09 10:04:52;;;;;;;10.63;6.70;;;;;;;;;;5078814;28;20060;-66
2021/03/09 10:07:23;;;;;;;11.80;6.35;;;;;;;;;;5074805;28;20059;-66
2021/03/09 10:10:08;;;;;;;11.85;6.70;;;;;;;;;;5075461;28;20025;-66
2021/03/09 10:12:34;;;;;;;15.32;6.95;;;;;;;;;;5094870;28;20499;-65
2021/03/09 10:15:01;;;;;;;11.95;6.10;;;;;;;;;;5094826;28;20418;-65
2021/03/09 10:17:27;;;;;;;12.40;6.25;;;;;;;;;;5095044;28;20020;-66
2021/03/09 10:19:54;;;;;;;11.13;5.97;;;;;;;;;;5095077;28;20473;-65
2021/03/09 10:22:21;;;;;;;8.93;5.50;;;;;;;;;;5094550;28;20046;-66
2021/03/09 10:24:48;;;;;;;9.30;5.35;;;;;;;;;;5086598;28;20485;-64
2021/03/09 10:27:21;;;;;;;11.00;6.45;;;;;;;;;;5071977;28;20541;-65
2021/03/09 10:29:48;;;;;;;13.00;7.38;;;;;;;;;;5082105;28;20020;-64
2021/03/09 10:32:16;;;;;;;9.52;5.95;;;;;;;;;;5088033;28;20105;-66
2021/03/09 10:34:43;;;;;;;13.55;6.20;;;;;;;;;;5077967;28;20420;-64
2021/03/09 10:37:10;;;;;;;13.80;8.77;;;;;;;;;;5074346;28;20441;-65
2021/03/09 10:39:38;;;;;;;13.30;7.00;;;;;;;;;;5074415;28;20059;-65
2021/03/09 10:42:22;;;;;;;15.63;6.05;;;;;;;;;;5073680;28;20055;-64
2021/03/09 10:44:49;;;;;;;10.43;6.22;;;;;;;;;;5074058;28;20016;-66
2021/03/09 10:47:16;;;;;;;10.88;6.25;;;;;;;;;;5073360;28;20053;-66
2021/03/09 10:49:42;;;;;;;10.23;6.22;;;;;;;;;;5073791;28;20017;-66
2021/03/09 10:52:09;;;;;;;9.88;5.57;;;;;;;;;;5073794;28;20033;-66
2021/03/09 10:54:39;;;;;;;12.50;6.00;;;;;;;;;;5074433;28;20024;-67
2021/03/09 10:57:06;;;;;;;10.43;6.32;;;;;;;;;;5074133;28;20025;-66
2021/03/09 10:59:33;;;;;;;7.82;5.57;;;;;;;;;;5062177;28;20020;-65
2021/03/09 11:01:59;;;;;;;9.63;5.65;;;;;;;;;;5053933;28;20032;-65
2021/03/09 11:04:25;;;;;;;12.40;6.57;;;;;;;;;;5053698;28;20078;-66
2021/03/09 11:06:51;;;;;;;10.52;6.40;;;;;;;;;;5053676;28;20028;-66
2021/03/09 11:09:18;;;;;;;9.60;6.47;;;;;;;;;;5053664;28;20037;-66
2021/03/09 11:11:44;;;;;;;10.77;5.65;;;;;;;;;;5053478;28;20033;-64
2021/03/09 11:14:11;;;;;;;10.20;6.13;;;;;;;;;;5053384;28;20028;-64
2021/03/09 11:16:37;;;;;;;9.95;5.75;;;;;;;;;;5053334;28;20035;-67
2021/03/09 11:19:03;;;;;;;11.80;6.38;;;;;;;;;;5053538;28;20432;-65
2021/03/09 11:21:30;;;;;;;10.80;5.78;;;;;;;;;;5053437;28;20086;-65
2021/03/09 11:23:56;;;;;;;13.75;6.55;;;;;;;;;;5053406;28;20493;-65
2021/03/09 11:26:23;;;;;;;12.00;6.43;;;;;;;;;;5073641;28;20024;-65
2021/03/09 11:28:49;;;;;;;11.55;5.75;;;;;;;;;;5071801;28;20392;-66
2021/03/09 11:31:16;;;;;;;11.02;5.95;;;;;;;;;;5054522;28;20027;-66
2021/03/09 11:33:42;;;;;;;11.13;6.25;;;;;;;;;;5053319;28;20466;-66
2021/03/09 11:36:11;;;;;;;8.73;5.85;;;;;;;;;;5054043;28;20119;-66
2021/03/09 11:38:37;;;;;;;10.80;6.07;;;;;;;;;;5053192;28;20090;-66
2021/03/09 11:41:03;;;;;;;9.90;6.05;;;;;;;;;;5083999;28;20054;-66
2021/03/09 11:43:30;;;;;;;10.88;6.43;;;;;;;;;;5088803;28;20028;-66
2021/03/09 11:45:56;;;;;;;11.05;5.70;;;;;;;;;;5083775;28;20051;-66
2021/03/09 11:48:22;;;;;;;11.60;6.25;;;;;;;;;;5084531;28;20089;-66
2021/03/09 11:50:49;;;;;;;10.52;6.10;;;;;;;;;;5092202;28;20035;-66
2021/03/09 11:53:15;;;;;;;10.35;6.03;;;;;;;;;;5072974;28;20054;-66
2021/03/09 11:55:41;;;;;;;9.48;5.70;;;;;;;;;;5072962;28;20028;-66
2021/03/09 11:58:08;;;;;;;10.63;6.03;;;;;;;;;;5081492;28;20031;-66
2021/03/09 12:00:34;;;;;;;15.93;6.72;;;;;;;;;;5089482;28;20035;-66
2021/03/09 12:03:00;;;;;;;14.88;6.20;;;;;;;;;;5094685;28;20103;-65
2021/03/09 12:05:26;;;;;;;16.27;7.05;;;;;;;;;;5090131;28;20024;-66
2021/03/09 12:07:52;;;;;;;15.27;6.88;;;;;;;;;;5092585;28;20039;-66
2021/03/09 12:10:18;;;;;;;12.38;6.65;;;;;;;;;;5088546;28;20091;-66
2021/03/09 12:12:44;;;;;;;14.15;5.90;;;;;;;;;;5087817;28;20459;-66
2021/03/09 12:15:11;;;;;;;12.13;5.57;;;;;;;;;;5077019;28;20033;-66
2021/03/09 12:17:37;;;;;;;13.35;6.20;;;;;;;;;;5076891;28;20025;-66
2021/03/09 12:20:04;;;;;;;10.52;6.50;;;;;;;;;;5092645;28;20039;-66
2021/03/09 12:22:30;;;;;;;8.38;5.80;;;;;;;;;;5097092;28;20036;-66
2021/03/09 12:24:57;;;;;;;9.50;5.25;;;;;;;;;;5090713;28;20107;-66
2021/03/09 12:27:23;;;;;;;9.07;6.18;;;;;;;;;;5078779;28;20035;-65
2021/03/09 12:29:49;;;;;;;12.30;6.45;;;;;;;;;;5096147;28;20024;-66
2021/03/09 12:32:15;;;;;;;12.55;5.53;;;;;;;;;;5076531;28;20104;-66
2021/03/09 12:34:42;;;;;;;12.68;6.00;;;;;;;;;;5074812;28;20029;-64
2021/03/09 12:37:08;;;;;;;12.25;6.50;;;;;;;;;;5056929;28;20362;-66
2021/03/09 12:39:34;;;;;;;10.77;6.22;;;;;;;;;;5065997;28;20081;-66
2021/03/09 12:42:00;;;;;;;8.70;5.35;;;;;;;;;;5065894;28;20056;-65
2021/03/09 12:44:27;;;;;;;9.35;5.40;;;;;;;;;;5071213;28;20031;-66
2021/03/09 12:46:53;;;;;;;10.63;6.43;;;;;;;;;;5081488;28;20731;-61
2021/03/09 12:49:19;;;;;;;12.60;5.80;;;;;;;;;;5076356;28;20016;-61
2021/03/09 12:51:45;;;;;;;8.70;5.95;;;;;;;;;;5072338;28;20051;-60
2021/03/09 12:54:12;;;;;;;11.02;5.63;;;;;;;;;;5068441;28;20373;-61
2021/03/09 12:56:38;;;;;;;8.10;5.47;;;;;;;;;;5064820;28;20078;-60
2021/03/09 12:59:04;;;;;;;8.60;5.72;;;;;;;;;;5086676;28;20052;-61
2021/03/09 13:01:31;;;;;;;10.27;5.38;;;;;;;;;;5087975;28;20119;-60
2021/03/09 13:03:58;;;;;;;10.73;5.47;;;;;;;;;;5095330;28;20149;-61
2021/03/09 13:06:24;;;;;;;8.80;5.72;;;;;;;;;;5064792;28;20024;-60
2021/03/09 13:08:50;;;;;;;12.52;5.88;;;;;;;;;;5064716;28;20107;-61
2021/03/09 13:11:17;;;;;;;12.60;5.97;;;;;;;;;;5060428;28;20378;-62
2021/03/09 13:13:43;;;;;;;12.70;5.53;;;;;;;;;;5055702;28;20017;-61
2021/03/09 13:16:09;;;;;;;9.60;5.63;;;;;;;;;;5055671;28;20079;-62
2021/03/09 13:18:35;;;;;;;9.68;5.68;;;;;;;;;;5055626;28;20025;-61
2021/03/09 13:21:01;;;;;;;10.10;5.63;;;;;;;;;;5055691;28;20044;-60
2021/03/09 13:23:27;;;;;;;10.60;5.78;;;;;;;;;;5055939;28;20020;-61
2021/03/09 13:25:53;;;;;;;10.32;5.78;;;;;;;;;;5055571;28;20389;-62
2021/03/09 13:28:20;;;;;;;13.65;5.40;;;;;;;;;;5055398;28;20492;-61
2021/03/09 13:30:46;;;;;;;11.48;5.90;;;;;;;;;;5076086;28;20025;-61
2021/03/09 13:33:12;;;;;;;11.73;6.03;;;;;;;;;;5094639;28;20035;-61
2021/03/09 13:35:38;;;;;;;10.38;5.68;;;;;;;;;;5094164;28;20032;-61
2021/03/09 13:38:06;;;;;;;11.38;5.43;;;;;;;;;;5095318;28;20020;-61
2021/03/09 13:40:32;;;;;;;9.43;5.50;;;;;;;;;;5095227;28;20031;-61
2021/03/09 13:42:59;;;;;;;11.90;5.85;;;;;;;;;;5095620;28;20028;-61
2021/03/09 13:45:25;;;;;;;9.65;5.68;;;;;;;;;;5095528;28;20403;-61
2021/03/09 13:47:51;;;;;;;9.73;5.47;;;;;;;;;;5091870;28;20459;-61
2021/03/09 13:50:18;;;;;;;13.23;6.00;;;;;;;;;;5071068;28;20112;-60
2021/03/09 13:52:44;;;;;;;12.27;5.80;;;;;;;;;;5069612;28;20535;-61
2021/03/09 13:55:14;;;;;;;9.23;5.45;;;;;;;;;;5074964;28;20028;-60
2021/03/09 13:57:40;;;;;;;14.10;5.78;;;;;;;;;;5063133;28;20032;-60
2021/03/09 14:00:08;;;;;;;11.05;5.72;;;;;;;;;;5065152;28;20072;-59
2021/03/09 14:02:35;;;;;;;9.00;5.65;;;;;;;;;;5064717;28;20033;-61
2021/03/09 14:05:01;;;;;;;11.07;5.38;;;;;;;;;;5068708;28;20025;-59
2021/03/09 14:07:27;;;;;;;9.68;5.95;;;;;;;;;;5075055;28;20062;-61
2021/03/09 14:09:53;;;;;;;8.73;5.40;;;;;;;;;;5075304;28;20021;-61
2021/03/09 14:12:19;;;;;;;9.52;5.78;;;;;;;;;;5087385;22;20497;-59
2021/03/09 14:14:45;;;;;;;8.23;5.07;;;;;;;;;;5073444;28;20040;-59
2021/03/09 14:17:13;;;;;;;6.60;4.80;;;;;;;;;;5083428;28;20099;-59
2021/03/09 14:19:39;;;;;;;12.35;5.32;;;;;;;;;;5075739;28;20034;-59
2021/03/09 14:22:06;;;;;;;12.57;6.18;;;;;;;;;;5073923;28;20040;-59
2021/03/09 14:24:32;;;;;;;7.85;5.25;;;;;;;;;;5083915;28;20078;-59
2021/03/09 14:26:58;;;;;;;8.05;4.93;;;;;;;;;;5084283;28;20032;-59
2021/03/09 14:29:24;;;;;;;9.15;5.43;;;;;;;;;;5094698;28;20024;-59